الصفحة الرئيسية
METAR-TAF:

METAR-TAF

مطار :

Cooma, أستراليا

دائرة عرض: 36-18-00S, خط طول: 148-58-24E, ارتفاع: 947 متر

مراقبة الطقس الحالي

تاريخ ووقت الإصدار 42 دقيقة قبل الساعة 17:00UTC
ريح 10 عقدة من الشمال الشرقي
درجة الحرارة 13°درجة مئوية
الرطوبة 94%
ضغط 1011 hPa
الرؤية 10 كم أو أكثر

METAR: YCOM 211700Z AUTO 04010KT 9999 // NCD 13/12 Q1011

زمن: 04:42 (17:42 UTC)


TAF: مفقودة

أرصاد الطقس والتوقعات من أكثر من 4000 مطار (تقارير الطقس للمطار METAR والتنبؤ بالطقس بالمطارTAF).

المحطات المتاحة هي النقط الصفراء والحمراء على الخريطة.

حرك المؤشر فوق النقطة لمعرفة اسم المحطة.

ثم انقر لمعرفة أرصاد وتوقعات الطقس.

لتغيير الخارطة: اضغط على الأزرار الخضراء مع رمز الصليب الأسود للتكبير. على الزر الأخضر مع شرطة للتصغير، أو على الأسهم الخضراء للخرائط المجاورة.


METAR-TAF: